createdAt,value
2022-12-16T00:01:13.932Z,1
2022-12-16T00:07:14.144Z,1
2022-12-16T00:08:14.312Z,1
2022-12-16T00:13:21.211Z,1
2022-12-16T00:35:13.788Z,1
2022-12-16T00:36:14.620Z,1
2022-12-16T00:37:14.008Z,1
2022-12-16T00:47:14.075Z,3
2022-12-16T00:48:14.271Z,3
2022-12-16T00:49:14.803Z,3
2022-12-16T00:54:14.201Z,3
2022-12-16T00:55:13.890Z,3
2022-12-16T00:56:14.342Z,3
2022-12-16T01:02:16.171Z,0
2022-12-16T01:14:14.063Z,0
2022-12-16T01:23:14.015Z,4
2022-12-16T01:24:14.704Z,4
2022-12-16T01:35:59.599Z,3
2022-12-16T01:36:14.425Z,3
2022-12-16T01:37:14.597Z,3
2022-12-16T01:38:14.425Z,3
2022-12-16T01:39:14.750Z,3
2022-12-16T01:40:14.599Z,3
2022-12-16T01:41:14.555Z,3
2022-12-16T01:42:14.614Z,3
2022-12-16T01:43:14.647Z,3
2022-12-16T01:44:14.695Z,3
2022-12-16T01:45:14.289Z,3
2022-12-16T01:46:14.493Z,3
2022-12-16T01:47:14.526Z,5
2022-12-16T01:48:14.696Z,5
2022-12-16T01:49:14.110Z,5
2022-12-16T01:50:13.761Z,5
2022-12-16T01:51:14.818Z,5
2022-12-16T01:52:14.782Z,5
2022-12-16T01:53:14.120Z,5
2022-12-16T01:54:14.572Z,5
2022-12-16T01:55:13.970Z,5
2022-12-16T01:56:14.271Z,5
2022-12-16T01:57:14.567Z,5
2022-12-16T01:58:14.603Z,5
2022-12-16T01:59:14.802Z,5
2022-12-16T02:00:14.252Z,5
2022-12-16T02:01:15.001Z,5
2022-12-16T02:03:15.058Z,6
2022-12-16T02:04:14.676Z,6
2022-12-16T02:05:14.384Z,6
2022-12-16T02:06:14.780Z,6
2022-12-16T02:07:14.446Z,6
2022-12-16T02:09:14.596Z,6
2022-12-16T02:10:14.432Z,6
2022-12-16T02:11:14.610Z,6
2022-12-16T02:12:14.752Z,6
2022-12-16T02:13:14.700Z,6
2022-12-16T02:14:13.993Z,6
2022-12-16T02:15:14.559Z,6
2022-12-16T02:17:14.507Z,6
2022-12-16T02:18:14.550Z,5
2022-12-16T02:19:14.485Z,5
2022-12-16T02:20:14.622Z,5
2022-12-16T02:21:13.938Z,5
2022-12-16T02:22:14.004Z,5
2022-12-16T02:23:14.592Z,5
2022-12-16T02:24:14.797Z,5
2022-12-16T02:25:14.182Z,5
2022-12-16T02:26:13.953Z,5
2022-12-16T02:27:14.887Z,5
2022-12-16T02:28:14.752Z,5
2022-12-16T02:29:14.415Z,5
2022-12-16T02:30:14.162Z,5
2022-12-16T02:31:13.996Z,5
2022-12-16T02:32:13.837Z,3
2022-12-16T02:33:14.204Z,3
2022-12-16T02:34:14.650Z,3
2022-12-16T02:35:14.485Z,3
2022-12-16T02:36:14.775Z,3
2022-12-16T02:37:14.816Z,3
2022-12-16T02:38:13.683Z,3
2022-12-16T02:39:13.949Z,3
2022-12-16T02:40:14.733Z,3
2022-12-16T02:41:14.693Z,3
2022-12-16T02:42:14.554Z,3
2022-12-16T02:43:14.802Z,3
2022-12-16T02:44:14.831Z,3
2022-12-16T02:45:14.300Z,3
2022-12-16T02:46:14.594Z,3
2022-12-16T02:47:14.525Z,3
2022-12-16T02:48:14.863Z,3
2022-12-16T02:49:14.623Z,3
2022-12-16T02:50:14.066Z,3
2022-12-16T02:51:14.438Z,3
2022-12-16T02:52:13.937Z,3
2022-12-16T02:53:14.362Z,3
2022-12-16T02:54:14.158Z,3
2022-12-16T02:55:14.234Z,3
2022-12-16T02:56:14.655Z,3
2022-12-16T02:57:14.187Z,3
2022-12-16T02:58:14.768Z,3
2022-12-16T02:59:14.219Z,3
2022-12-16T03:00:14.561Z,3
2022-12-16T03:01:14.241Z,3
2022-12-16T03:02:15.795Z,1
2022-12-16T03:03:14.870Z,1
2022-12-16T03:04:14.324Z,1
2022-12-16T03:05:14.013Z,1
2022-12-16T03:06:14.762Z,1
2022-12-16T03:07:14.064Z,1
2022-12-16T03:08:14.448Z,1
2022-12-16T03:09:13.888Z,1
2022-12-16T03:10:13.793Z,1
2022-12-16T03:11:14.361Z,1
2022-12-16T03:13:14.261Z,1
2022-12-16T03:14:14.282Z,1
2022-12-16T03:15:13.928Z,1
2022-12-16T03:16:14.741Z,1
2022-12-16T03:17:14.554Z,1
2022-12-16T03:18:14.323Z,1
2022-12-16T03:19:14.867Z,1
2022-12-16T03:20:14.386Z,1
2022-12-16T03:21:14.091Z,1
2022-12-16T03:22:14.735Z,1
2022-12-16T03:23:14.190Z,1
2022-12-16T03:24:14.690Z,1
2022-12-16T03:25:14.148Z,1
2022-12-16T03:26:14.780Z,1
2022-12-16T03:27:14.421Z,1
2022-12-16T03:28:14.546Z,1
2022-12-16T03:29:13.919Z,1
2022-12-16T03:30:13.940Z,1
2022-12-16T03:31:14.601Z,1
2022-12-16T03:32:14.036Z,3
2022-12-16T03:33:14.450Z,3
2022-12-16T03:34:13.902Z,3
2022-12-16T03:35:14.431Z,3
2022-12-16T03:36:13.873Z,3
2022-12-16T03:37:14.420Z,3
2022-12-16T03:38:13.952Z,3
2022-12-16T03:39:14.424Z,3
2022-12-16T03:40:13.835Z,3
2022-12-16T03:41:14.346Z,3
2022-12-16T03:42:13.921Z,3
2022-12-16T03:43:14.306Z,3
2022-12-16T03:44:13.713Z,3
2022-12-16T03:45:13.845Z,3
2022-12-16T03:46:14.957Z,3
2022-12-16T03:47:15.924Z,0
2022-12-16T03:48:14.250Z,0
2022-12-16T03:49:14.471Z,0
2022-12-16T03:50:14.543Z,0
2022-12-16T03:51:13.628Z,0
2022-12-16T03:52:13.872Z,0
2022-12-16T03:53:14.520Z,0
2022-12-16T03:54:14.283Z,0
2022-12-16T03:55:14.382Z,0
2022-12-16T03:56:14.005Z,0
2022-12-16T03:57:20.131Z,0
2022-12-16T03:58:14.424Z,0
2022-12-16T03:59:14.020Z,0
2022-12-16T04:00:13.854Z,0
2022-12-16T04:01:14.098Z,0
2022-12-16T04:04:14.216Z,0
2022-12-16T04:05:14.503Z,0
2022-12-16T04:06:13.978Z,0
2022-12-16T04:07:14.077Z,0
2022-12-16T04:08:14.938Z,0
2022-12-16T04:09:14.836Z,0
2022-12-16T04:10:13.900Z,0
2022-12-16T04:11:14.599Z,0
2022-12-16T04:12:13.912Z,0
2022-12-16T04:13:13.914Z,0
2022-12-16T04:14:14.837Z,0
2022-12-16T04:15:14.016Z,0
2022-12-16T04:16:14.220Z,0
2022-12-16T04:17:14.223Z,0
2022-12-16T04:18:13.852Z,0
2022-12-16T04:19:14.875Z,0
2022-12-16T04:20:13.825Z,0
2022-12-16T04:21:14.763Z,0
2022-12-16T04:22:14.680Z,0
2022-12-16T04:23:14.880Z,0
2022-12-16T04:24:14.337Z,0
2022-12-16T04:26:13.127Z,0
2022-12-16T04:27:21.932Z,0
2022-12-16T04:28:13.748Z,0
2022-12-16T04:29:14.012Z,0
2022-12-16T04:31:14.857Z,0
2022-12-16T04:32:13.932Z,1
2022-12-16T04:33:14.940Z,1
2022-12-16T04:34:14.644Z,1
2022-12-16T04:35:14.155Z,1
2022-12-16T04:36:14.751Z,1
2022-12-16T04:37:14.545Z,1
2022-12-16T04:38:14.005Z,1
2022-12-16T04:39:13.894Z,1
2022-12-16T04:40:14.343Z,1
2022-12-16T04:41:14.681Z,1
2022-12-16T04:42:15.480Z,1
2022-12-16T04:43:14.978Z,1
2022-12-16T04:44:14.446Z,1
2022-12-16T04:45:14.503Z,1
2022-12-16T04:46:15.136Z,1
2022-12-16T04:47:14.380Z,0
2022-12-16T04:48:14.707Z,0
2022-12-16T04:49:14.580Z,0
2022-12-16T04:50:14.814Z,0
2022-12-16T04:51:14.315Z,0
2022-12-16T04:52:14.825Z,0
2022-12-16T04:53:13.871Z,0
2022-12-16T04:54:14.620Z,0
2022-12-16T04:55:14.402Z,0
2022-12-16T04:57:14.474Z,0
2022-12-16T04:58:14.519Z,0
2022-12-16T04:59:14.425Z,0
2022-12-16T05:00:14.527Z,0
2022-12-16T05:01:14.846Z,0
2022-12-16T05:02:15.240Z,0
2022-12-16T05:03:14.414Z,0
2022-12-16T05:04:14.735Z,0
2022-12-16T05:05:13.951Z,0
2022-12-16T05:06:14.819Z,0
2022-12-16T05:07:14.204Z,0
2022-12-16T05:08:14.271Z,0
2022-12-16T05:09:13.848Z,0
2022-12-16T05:10:13.868Z,0
2022-12-16T05:11:14.773Z,0
2022-12-16T05:12:14.832Z,0
2022-12-16T05:13:14.790Z,0
2022-12-16T05:14:14.077Z,0
2022-12-16T05:15:14.483Z,0
2022-12-16T05:16:14.971Z,0
2022-12-16T05:17:14.968Z,0
2022-12-16T05:18:14.527Z,0
2022-12-16T05:19:14.048Z,0
2022-12-16T05:20:14.354Z,0
2022-12-16T05:21:13.777Z,0
2022-12-16T05:22:14.107Z,0
2022-12-16T05:23:14.413Z,0
2022-12-16T05:24:14.320Z,0
2022-12-16T05:25:13.968Z,0
2022-12-16T05:26:14.409Z,0
2022-12-16T05:27:14.065Z,0
2022-12-16T05:28:13.994Z,0
2022-12-16T05:29:14.545Z,0
2022-12-16T05:30:14.627Z,0
2022-12-16T05:31:14.244Z,0
2022-12-16T05:33:14.866Z,0
2022-12-16T05:34:14.278Z,0
2022-12-16T05:35:14.238Z,0
2022-12-16T05:36:14.010Z,0
2022-12-16T05:37:14.544Z,0
2022-12-16T05:38:14.602Z,0
2022-12-16T05:39:14.232Z,0
2022-12-16T05:40:14.731Z,0
2022-12-16T05:41:14.187Z,0
2022-12-16T05:42:14.665Z,0
2022-12-16T05:44:14.720Z,0
2022-12-16T05:45:14.755Z,0
2022-12-16T05:46:15.499Z,0
2022-12-16T05:47:14.702Z,0
2022-12-16T05:48:14.729Z,0
2022-12-16T05:49:14.208Z,0
2022-12-16T05:50:13.968Z,0
2022-12-16T05:51:14.476Z,0
2022-12-16T05:52:13.883Z,0
2022-12-16T05:53:14.443Z,0
2022-12-16T05:54:13.901Z,0
2022-12-16T05:56:14.329Z,0
2022-12-16T05:58:14.417Z,0
2022-12-16T05:59:14.010Z,0
2022-12-16T06:00:14.434Z,0
2022-12-16T06:01:14.775Z,0
2022-12-16T06:02:15.079Z,0
2022-12-16T06:05:14.472Z,0
2022-12-16T06:06:14.381Z,0
2022-12-16T06:07:13.848Z,0
2022-12-16T06:08:14.410Z,0
2022-12-16T06:09:13.925Z,0
2022-12-16T06:10:14.231Z,0
2022-12-16T06:11:14.700Z,0
2022-12-16T06:12:14.575Z,0
2022-12-16T06:13:14.233Z,0
2022-12-16T06:14:14.695Z,0
2022-12-16T06:15:14.551Z,0
2022-12-16T06:18:14.172Z,0
2022-12-16T06:19:14.736Z,0
2022-12-16T06:20:14.351Z,0
2022-12-16T06:22:14.690Z,0
2022-12-16T06:23:14.677Z,0
2022-12-16T06:24:14.514Z,0
2022-12-16T06:25:13.999Z,0
2022-12-16T06:26:14.520Z,0
2022-12-16T06:27:13.919Z,0
2022-12-16T06:28:14.788Z,0
2022-12-16T06:29:14.335Z,0
2022-12-16T06:30:14.354Z,0
2022-12-16T06:31:14.115Z,0
2022-12-16T06:32:14.700Z,4
2022-12-16T06:33:13.899Z,4
2022-12-16T06:34:14.538Z,4
2022-12-16T06:35:14.059Z,4
2022-12-16T06:36:14.460Z,4
2022-12-16T06:37:13.933Z,4
2022-12-16T06:38:14.467Z,4
2022-12-16T06:39:13.764Z,4
2022-12-16T06:40:13.937Z,4
2022-12-16T06:41:14.403Z,4
2022-12-16T06:42:14.777Z,4
2022-12-16T06:43:14.127Z,4
2022-12-16T06:44:13.746Z,4
2022-12-16T06:45:14.615Z,4
2022-12-16T06:46:15.096Z,4
2022-12-16T06:47:14.113Z,0
2022-12-16T06:48:14.553Z,0
2022-12-16T06:49:14.004Z,0
2022-12-16T06:50:14.222Z,0
2022-12-16T06:51:14.546Z,0
2022-12-16T06:52:14.007Z,0
2022-12-16T06:53:14.754Z,0
2022-12-16T06:54:14.191Z,0
2022-12-16T06:55:14.670Z,0
2022-12-16T06:56:14.303Z,0
2022-12-16T06:57:14.746Z,0
2022-12-16T06:58:20.513Z,0
2022-12-16T06:59:14.693Z,0
2022-12-16T07:00:14.649Z,0
2022-12-16T07:02:15.368Z,5
2022-12-16T07:03:15.606Z,5
2022-12-16T07:04:14.140Z,5
2022-12-16T07:05:14.966Z,5
2022-12-16T07:06:14.164Z,5
2022-12-16T07:07:14.588Z,5
2022-12-16T07:08:13.913Z,5
2022-12-16T07:09:14.732Z,5
2022-12-16T07:10:14.232Z,5
2022-12-16T07:11:28.636Z,5
2022-12-16T07:12:13.883Z,5
2022-12-16T07:13:14.857Z,5
2022-12-16T07:14:14.603Z,5
2022-12-16T07:15:14.092Z,5
2022-12-16T07:16:14.793Z,5
2022-12-16T07:17:20.905Z,5
2022-12-16T07:18:14.075Z,5
2022-12-16T07:19:13.745Z,5
2022-12-16T07:20:14.773Z,5
2022-12-16T07:21:14.691Z,5
2022-12-16T07:22:14.720Z,5
2022-12-16T07:23:29.680Z,5
2022-12-16T07:24:14.652Z,5
2022-12-16T07:25:14.707Z,5
2022-12-16T07:26:14.226Z,5
2022-12-16T07:27:14.618Z,5
2022-12-16T07:29:13.810Z,5
2022-12-16T07:30:14.139Z,5
2022-12-16T07:31:14.631Z,5
2022-12-16T07:32:14.584Z,7
2022-12-16T07:33:14.397Z,7
2022-12-16T07:34:14.360Z,7
2022-12-16T07:35:14.036Z,7
2022-12-16T07:36:14.067Z,7
2022-12-16T07:37:14.589Z,7
2022-12-16T07:38:14.483Z,7
2022-12-16T07:39:13.917Z,7
2022-12-16T07:40:14.150Z,7
2022-12-16T07:41:15.117Z,7
2022-12-16T07:42:14.077Z,7
2022-12-16T07:43:13.949Z,7
2022-12-16T07:44:14.328Z,7
2022-12-16T07:45:14.357Z,7
2022-12-16T07:46:15.268Z,7
2022-12-16T07:48:14.984Z,5
2022-12-16T07:49:14.795Z,5
2022-12-16T07:50:14.503Z,5
2022-12-16T07:51:14.041Z,5
2022-12-16T07:52:14.042Z,5
2022-12-16T07:53:14.876Z,5
2022-12-16T07:54:14.684Z,5
2022-12-16T07:55:14.726Z,5
2022-12-16T07:56:14.993Z,5
2022-12-16T07:57:14.054Z,5
2022-12-16T07:58:14.434Z,5
2022-12-16T07:59:14.231Z,5
2022-12-16T08:00:14.788Z,5
2022-12-16T08:03:15.628Z,5
2022-12-16T08:04:14.480Z,5
2022-12-16T08:05:13.883Z,5
2022-12-16T08:06:14.439Z,5
2022-12-16T08:07:14.134Z,5
2022-12-16T08:08:14.547Z,5
2022-12-16T08:09:14.005Z,5
2022-12-16T08:10:14.880Z,5
2022-12-16T08:11:14.899Z,5
2022-12-16T08:12:14.169Z,5
2022-12-16T08:13:15.419Z,5
2022-12-16T08:14:15.176Z,5
2022-12-16T08:15:15.086Z,5
2022-12-16T08:16:15.011Z,5
2022-12-16T08:17:15.001Z,4
2022-12-16T08:18:13.764Z,4
2022-12-16T08:20:14.405Z,4
2022-12-16T08:21:13.337Z,4
2022-12-16T08:22:13.832Z,4
2022-12-16T08:29:57.396Z,4
2022-12-16T08:33:30.041Z,4
2022-12-16T08:37:14.344Z,4
2022-12-16T08:38:22.170Z,4
2022-12-16T08:40:47.492Z,4
2022-12-16T08:43:21.363Z,4
2022-12-16T09:01:20.552Z,5
2022-12-16T09:12:14.516Z,6
2022-12-16T09:16:22.224Z,6
2022-12-16T09:24:14.395Z,5
2022-12-16T09:32:14.030Z,3
2022-12-16T09:35:22.062Z,3
2022-12-16T09:47:20.806Z,5
2022-12-16T09:52:20.722Z,5
2022-12-16T09:59:14.513Z,5
2022-12-16T10:03:20.755Z,5
2022-12-16T10:08:21.190Z,5
2022-12-16T10:14:21.715Z,5
2022-12-16T10:15:14.277Z,5
2022-12-16T10:20:21.491Z,8
2022-12-16T10:37:29.014Z,6
2022-12-16T10:52:20.870Z,6
2022-12-16T10:58:14.196Z,6
2022-12-16T10:59:14.064Z,6
2022-12-16T11:15:51.106Z,5
2022-12-16T11:16:14.846Z,5
2022-12-16T11:17:14.257Z,7
2022-12-16T11:18:15.221Z,7
2022-12-16T11:20:15.069Z,7
2022-12-16T11:21:24.083Z,7
2022-12-16T11:22:15.063Z,7
2022-12-16T11:23:15.131Z,7
2022-12-16T11:24:14.765Z,7
2022-12-16T11:25:14.379Z,7
2022-12-16T11:26:14.954Z,7
2022-12-16T11:27:14.282Z,7
2022-12-16T11:28:14.331Z,7
2022-12-16T11:29:14.839Z,7
2022-12-16T11:30:15.174Z,7
2022-12-16T11:31:14.700Z,7
2022-12-16T11:32:15.561Z,5
2022-12-16T11:33:14.876Z,5
2022-12-16T11:34:15.221Z,5
2022-12-16T11:35:13.957Z,5
2022-12-16T11:36:14.402Z,5
2022-12-16T11:39:15.008Z,5
2022-12-16T11:41:14.729Z,5
2022-12-16T11:43:27.377Z,5
2022-12-16T11:44:14.896Z,5
2022-12-16T11:46:14.835Z,5
2022-12-16T11:47:15.012Z,6
2022-12-16T11:48:15.049Z,6
2022-12-16T11:49:15.072Z,6
2022-12-16T11:50:14.956Z,6
2022-12-16T11:51:15.175Z,6
2022-12-16T11:52:48.491Z,6
2022-12-16T11:56:27.421Z,6
2022-12-16T12:08:14.186Z,6
2022-12-16T12:09:14.696Z,6
2022-12-16T12:30:22.412Z,5
2022-12-16T12:35:13.803Z,7
2022-12-16T12:55:13.943Z,7
2022-12-16T13:02:15.941Z,5
2022-12-16T13:13:15.024Z,5
2022-12-16T13:14:13.732Z,5
2022-12-16T13:15:14.121Z,5
2022-12-16T13:16:16.258Z,5
2022-12-16T13:17:14.093Z,6
2022-12-16T13:18:13.805Z,6
2022-12-16T13:19:18.030Z,6
2022-12-16T13:20:14.095Z,6
2022-12-16T13:21:15.368Z,6
2022-12-16T13:22:15.628Z,6
2022-12-16T13:23:13.655Z,6
2022-12-16T13:24:14.245Z,6
2022-12-16T13:25:13.922Z,6
2022-12-16T13:26:14.142Z,6
2022-12-16T13:27:14.288Z,6
2022-12-16T13:28:13.748Z,6
2022-12-16T13:29:14.468Z,6
2022-12-16T13:30:13.979Z,6
2022-12-16T13:31:14.175Z,6
2022-12-16T13:32:14.922Z,6
2022-12-16T13:33:14.303Z,6
2022-12-16T13:34:14.656Z,6
2022-12-16T13:35:14.072Z,6
2022-12-16T13:36:14.645Z,6
2022-12-16T13:37:15.606Z,6
2022-12-16T13:38:14.534Z,6
2022-12-16T13:39:14.060Z,6
2022-12-16T13:40:14.783Z,6
2022-12-16T13:41:13.529Z,6
2022-12-16T13:42:14.463Z,6
2022-12-16T13:43:13.710Z,6
2022-12-16T13:44:13.723Z,6
2022-12-16T13:45:14.050Z,6
2022-12-16T13:46:14.877Z,6
2022-12-16T13:47:13.760Z,5
2022-12-16T13:48:14.422Z,5
2022-12-16T13:49:16.331Z,5
2022-12-16T13:50:14.165Z,5
2022-12-16T13:51:22.636Z,5
2022-12-16T13:52:13.957Z,5
2022-12-16T13:53:13.703Z,5
2022-12-16T13:54:14.247Z,5
2022-12-16T13:55:13.685Z,5
2022-12-16T13:56:14.253Z,5
2022-12-16T13:57:13.722Z,5
2022-12-16T13:58:14.416Z,5
2022-12-16T13:59:14.196Z,5
2022-12-16T14:00:14.165Z,5
2022-12-16T14:01:14.607Z,5
2022-12-16T14:02:14.287Z,6
2022-12-16T14:03:14.772Z,6
2022-12-16T14:04:13.618Z,6
2022-12-16T14:05:13.884Z,6
2022-12-16T14:06:14.280Z,6
2022-12-16T14:07:15.265Z,6
2022-12-16T14:09:13.926Z,6
2022-12-16T14:11:13.983Z,6
2022-12-16T14:19:13.905Z,5
2022-12-16T14:21:14.713Z,5
2022-12-16T14:23:55.651Z,5
2022-12-16T14:26:13.845Z,5
2022-12-16T14:30:13.000Z,5
2022-12-16T14:33:14.579Z,6
2022-12-16T14:34:13.847Z,6
2022-12-16T14:38:13.930Z,6
2022-12-16T14:44:13.991Z,6
2022-12-16T14:46:15.210Z,6
2022-12-16T14:50:14.208Z,5
2022-12-16T14:51:14.656Z,5
2022-12-16T14:54:13.395Z,5
2022-12-16T15:01:23.045Z,5
2022-12-16T15:04:16.531Z,5
2022-12-16T15:07:13.991Z,5
2022-12-16T15:21:13.404Z,5
2022-12-16T15:22:13.142Z,5
2022-12-16T15:27:13.955Z,5
2022-12-16T15:28:14.338Z,5
2022-12-16T15:29:14.439Z,5
2022-12-16T15:36:13.980Z,6
2022-12-16T15:44:13.292Z,6
2022-12-16T15:45:13.167Z,6
2022-12-16T15:47:13.857Z,5
2022-12-16T15:59:13.942Z,5
2022-12-16T16:02:18.559Z,7
2022-12-16T16:06:14.528Z,7
2022-12-16T16:07:14.157Z,7
2022-12-16T16:09:13.960Z,7
2022-12-16T16:10:14.678Z,7
2022-12-16T16:11:13.324Z,7
2022-12-16T16:12:13.855Z,7
2022-12-16T16:13:14.334Z,7
2022-12-16T16:14:24.269Z,7
2022-12-16T16:15:14.824Z,7
2022-12-16T16:16:14.456Z,7
2022-12-16T16:17:13.885Z,6
2022-12-16T16:27:13.862Z,6
2022-12-16T16:28:14.431Z,6
2022-12-16T16:36:13.047Z,7
2022-12-16T16:41:13.736Z,7
2022-12-16T16:42:13.958Z,7
2022-12-16T16:55:13.841Z,6
2022-12-16T16:56:22.362Z,6
2022-12-16T16:57:13.888Z,6
2022-12-16T16:59:13.732Z,6
2022-12-16T17:00:13.857Z,6
2022-12-16T17:11:13.894Z,6
2022-12-16T17:15:13.923Z,6
2022-12-16T17:21:13.988Z,6
2022-12-16T17:22:13.961Z,6
2022-12-16T17:26:13.924Z,6
2022-12-16T17:27:13.742Z,6
2022-12-16T17:28:13.716Z,6
2022-12-16T17:35:13.816Z,7
2022-12-16T17:36:14.126Z,7
2022-12-16T17:37:13.963Z,7
2022-12-16T17:48:13.835Z,6
2022-12-16T17:51:14.014Z,6
2022-12-16T17:53:13.938Z,6
2022-12-16T17:54:35.993Z,6
2022-12-16T17:55:13.673Z,6
2022-12-16T18:07:13.907Z,7
2022-12-16T18:09:14.177Z,7
2022-12-16T18:10:14.760Z,7
2022-12-16T18:12:14.665Z,7
2022-12-16T18:13:14.372Z,7
2022-12-16T18:18:13.977Z,7
2022-12-16T18:20:13.008Z,7
2022-12-16T18:21:12.897Z,7
2022-12-16T18:26:13.864Z,7
2022-12-16T18:29:14.023Z,7
2022-12-16T18:30:14.531Z,7
2022-12-16T18:35:13.892Z,7
2022-12-16T18:37:13.909Z,7
2022-12-16T18:38:20.378Z,7
2022-12-16T18:40:14.593Z,7
2022-12-16T18:42:14.675Z,7
2022-12-16T18:52:13.879Z,6
2022-12-16T18:53:14.419Z,6
2022-12-16T18:54:13.828Z,6
2022-12-16T18:56:13.987Z,6
2022-12-16T18:58:58.427Z,6
2022-12-16T19:00:14.689Z,6
2022-12-16T19:11:13.904Z,6
2022-12-16T19:14:14.196Z,6
2022-12-16T19:19:22.080Z,6
2022-12-16T19:27:21.991Z,6
2022-12-16T19:35:14.784Z,9
2022-12-16T19:47:14.162Z,9
2022-12-16T19:55:21.769Z,9
2022-12-16T19:58:13.999Z,9
2022-12-16T20:02:14.730Z,9
2022-12-16T20:23:14.262Z,9
2022-12-16T20:24:13.995Z,9
2022-12-16T20:30:14.587Z,9
2022-12-16T20:33:14.232Z,8
2022-12-16T20:34:15.704Z,8
2022-12-16T20:43:13.892Z,8
2022-12-16T20:44:14.076Z,8
2022-12-16T20:50:14.139Z,11
2022-12-16T20:51:14.620Z,11
2022-12-16T20:52:13.934Z,11
2022-12-16T20:53:13.715Z,11
2022-12-16T20:58:13.830Z,11
2022-12-16T21:03:16.145Z,8
2022-12-16T21:13:19.732Z,8
2022-12-16T21:16:13.673Z,8
2022-12-16T21:17:13.578Z,7
2022-12-16T21:20:14.705Z,7
2022-12-16T21:26:13.903Z,7
2022-12-16T21:28:13.967Z,7
2022-12-16T21:46:13.915Z,8
2022-12-16T21:47:14.271Z,8
2022-12-16T21:48:13.868Z,8
2022-12-16T22:05:13.995Z,8
2022-12-16T22:07:13.330Z,8
2022-12-16T22:08:14.289Z,8
2022-12-16T22:10:13.941Z,8
2022-12-16T22:12:13.994Z,8
2022-12-16T22:20:14.179Z,11
2022-12-16T22:28:13.820Z,11
2022-12-16T22:31:18.224Z,11
2022-12-16T22:32:13.741Z,8
2022-12-16T22:33:13.806Z,8
2022-12-16T22:49:14.674Z,8
2022-12-16T22:52:13.771Z,8
2022-12-16T22:54:13.908Z,8
2022-12-16T22:55:13.943Z,8
2022-12-16T22:58:15.379Z,8
2022-12-16T22:59:14.051Z,8
2022-12-16T23:00:13.928Z,8
2022-12-16T23:06:14.527Z,8
2022-12-16T23:07:13.927Z,8
2022-12-16T23:20:13.827Z,13
2022-12-16T23:21:14.683Z,13
2022-12-16T23:25:13.910Z,13
2022-12-16T23:43:13.895Z,11
2022-12-16T23:55:14.457Z,12
2022-12-16T23:56:13.962Z,12
